Race Results for
Skyline Park Mountain Bike Race
Napa, CA
(Event Information)
View By:
Cross Country on 06/12/2011

Note: Ranking points are NOT upgrade points. An explanation of ranking points can be found here.


Men - Cat 1/2/3 - Expert

 Place Points NameCity, StateTime USAC #BibTeam
1Jason Hayes   2:44:07  681 Godspeed

Men - Cat 1/2/3 - Single Speed

 Place Points NameCity, StateTime USAC #BibTeam
1500.14William Surges   Martinez, CA2:17:23 103064  668 0
2510.12Nicholas Barton   Richmond, CA2:19:55 158432  697 Team Hammer
3520.11Cesar Chavez   San Jose, CA2:24:08 6697  687 Buy-Cell.com/IBIS
4530.09Jay Bretz   Santa Rosa, CA2:28:02 255002  535 Breakaway bikes
5540.08Ron Shevock   Folsom, CA2:29:42 294396  646 Team Mad Cat / Folsom Bike
6550.06Eric Hill   Vail Colorado2:30:11 214180  645 Honey Stinger
7560.05Timothy Cannard   Los Gatos, CA2:33:01 6002  643 Buy-Cell.com/Ibis
8570.03Uri Friedman   San Francisco, CA2:37:12 202518  644 Chica Sexy
9580.02Seth Taylor   Bend, OR2:46:34 243830  679 Zeitgeist Racing
10Herb Bool   2:47:23  663 Zeitgeist Racing
DNFEric Olson   dnf  539 Summitt

Men - Cat 1/2/3 - Junior - 15-16

 Place Points NameCity, StateTime USAC #BibTeam
1459.67Matthew Erbentraut   Novato, CA1:30:18 353650  971 San Marin High School
2472.70Skyler Taylor   Mill Valley, CA1:33:56 271070  778 Above Cat Racing
3485.73Sean Bennett   El Cerrito, CA1:36:33 347932  771 El Cerrito High School
4498.76Jaraf Stowe   Santa Cruz, CA1:43:15 321906  784 0
5511.79Jack Keane   Mill Valley, CA1:43:56 293119  975 Above Category Racing
6Marcus Segedin   1:49:32  988 0
7537.85Chance Tiner   Santa Cruz, CA2:01:19 304640  978 Santa Cruz Junior Cycling Composite
8Joshua Lawrence   2:01:43  976 0
9Jasper Guyer-Stevens   2:01:54  973 Healdsburg High Greyhounds
10Alexander Marshland   2:02:00  977 0
11Ryan Grutze   2:03:43  972 Healdsburg High Greyhounds

Men - Cat 3 - Senior

 Place Points NameCity, StateTime USAC #BibTeam
1540.00Kevin Herron   Folsom, CA0:58:01 347570  801 NorCal Hub Racing
2Tyler Schmorleitz   0:58:19  833 The Hub
3James Weatherson   1:00:14  807 0
4Craig Wesner   1:01:04  832 0
5565.00Peter Francis   Fairfield, CA1:01:46 344836  800 Franchise Track Club
6Nicholas Nesbitt   1:05:15  804 Zeitgeist Racing
7Michael Stofan   1:09:35  806 0
8583.75Nicholas McBride   Sacramento, CA1:14:40 168104  803 0
9Damon Ropoulos   1:22:12  805 0

Men - Cat 3 - Master - 40-49

 Place Points NameCity, StateTime USAC #BibTeam
1540.00Ken Masica   Livermore, CA0:58:16 357299  829 0
2Brad Coburn   0:59:07  808 0
3Daniel Baldini   1:01:14  825 Footwork
4Rigoletto PASIBE   1:03:04  831 0
5573.32Nick Desin   Larkspur, CA1:04:36 354822  809 0
6Fernando Ontiveros   1:07:41  836 0
7John Lynch   1:29:10  810 0

Men - Cat 3 - Master - 50-99

 Place Points NameCity, StateTime USAC #BibTeam
1Bill Fargo   1:02:09  812 0
2Curtis Colaw   1:04:39  811 0
3Brian Padilla   1:15:11  827 0
4577.50Donald Hoffler   Nevada City, CA1:19:57 346450  813 Nevada Union Mountain Bike Team
5Lawrence Kennedy   2:50:45  814 Masapequa Park Bicycle Club

Men - Cat 2 - Senior - 19-24

 Place Points NameCity, StateTime USAC #BibTeam
1540.00Nathaniel Powell   Antelope, CA1:41:46 288682  747 Victory Velo Bike Shop
2565.00Danny Knoll   Fernley, NV1:55:34 169582  742 Reno Wheelmen
3Kurtis Westbrook   2:03:31  751 Team Get Shreddy

Men - Cat 2 - Senior - 25-29

 Place Points NameCity, StateTime USAC #BibTeam
1512.54Scott Hooper   Folsom, CA1:39:56 142947  740 team Bicycles Plus/Sierra Nevada
2517.70Kyle Clark   Oakland, CA1:49:35 327984  737 NRL
3522.86Corey Bray   San Francisco, CA1:40:48 348518  736 0
4Oliver Trixel   1:44:07  782 0
5Chris Sota   1:45:10  794 Quadzila
6Joseph Ziemann   1:53:25  753 Lehigh Cycling
7Chris Hornberger   1:53:50  741 0
8Geoffrey Colburn   1:54:21  738 Chica Sexy
9553.82Christopher Rhodes   Oakland, CA1:55:01 289121  748 Team Roaring Mouse
10558.98Seth Leidy   Berkeley, CA1:55:20 290798  743 Berkeley Bicycle Club (BBC)
11Will Lewis   1:56:45  744 0
12Jerry McNamara   1:58:48  788 0
13Dennis Tyrrell   2:12:10  750 None
14Alex Seipp   2:15:29  749 0
15584.78Gary Nagle   Reno, NV2:16:48 302983  746 Nevada Cycling
16589.94Nathaniel Eng   Fremont, CA2:30:58 237552  739 BBC
DNFTucker McCormick   dnf  745 0
DNFzachary woods   Oakhurst, CAdnf 349236  752 stevens bicycle racing

Men - Cat 2 - Master - 30-34

 Place Points NameCity, StateTime USAC #BibTeam
1537.30Chad Arkoff   San Francisco, CA1:43:51 121318  798 Roaring Mouse
2Lawrence Bugenig   1:45:42  682 Velo Reno
3Miroslav Miklos   1:46:00  706 0
4559.89Stephen Berg   Reno, NV1:49:23 328078  700 Northstar/Giant
5Antonia Miranda   1:58:03  795 Bicycle Emporium
6574.95Matthew Boser   Berkeley, CA2:07:07 327202  701 Cal Cycling
7Matthew Bush   2:10:14  702 0
8Bogdan Marian   2:17:46  705 0
DNFDan Winkels   dnf  793 0

Men - Cat 2 - Master - 35-39

 Place Points NameCity, StateTime USAC #BibTeam
1Rich Gasway   1:33:39  770 0
2488.03Brian Wallace   Reno, NV1:42:05 37037  713 Velo Reno
3499.36James Pavlichek   Davis, CA1:42:10 63239  708 Davis Bike Club Race Team
4510.69Josh Walker   Oakland, CA1:48:40 36997  781 0
5Chris Purio   1:51:26  773 0
6533.35frank sisneros   Vacaville, CA1:53:47 354246  710 monticello cycling club
7544.68Matthew Triska   San Francisco, CA1:56:49 257229  712 Dolore Grotta
8556.01harish narayanaswamy   Atherton, CA2:00:32 308611  707 peninsula pet hospital
9Ederald Sue   2:01:58  783 0
10Dan King   2:07:22  704 Quadzilla
11Alan Ting   2:55:10  711 Super Troopers

Men - Cat 2 - Master - 40-44

 Place Points NameCity, StateTime USAC #BibTeam
1462.62Christian Hobbs   Corte Madera, CA1:36:55 291426  720 Studio Velo
2Bob Drowne   1:38:06  790 Ray's Cycle
3483.44Jeff DeBrito   Davis, CA1:41:14 90639  733 Davis Bike Club
4493.85Tim Welte   Brentwood, CA1:43:03 337394  780 0
5Joshua Maffly   1:44:53  726 0
6514.67tom campeau   Folsom, CA1:48:42 335714  715 Folsom Bike
7525.08Richard Kirby   Santa Rosa, CA1:48:46 308238  723 Sonoma County Collective
8535.49Joe Narciso   Pleasanton, CA1:49:57 304805  728 Tito's Handmade Vodka
9545.90Michael Kalin   Lafayette, CA1:50:54 266414  722 Taleo Racing
10Brian Sisneros   1:59:16  731 MMCR Racing
11Albert Reinhardt   2:00:00  709 0
12577.13Thomas Switzer   San Mateo, CA2:22:37 53912  732 0
13Mike Salib   2:29:27  730 0

Men - Cat 2 - Master - 45-49

 Place Points NameCity, StateTime USAC #BibTeam
1497.64Michael Fine   Vacaville, CA1:40:33 76882  718 Precision Stone Racing
2504.24Bruce Armstrong   San Francisco, CA1:43:11 164135  714 Velo SF
3510.84Tom Courtney   Kentfield, CA1:43:31 221053  717 0
4Bruce Macgregor   1:48:55  725 0
5Richard Jacinto   1:51:54  721 0
6Michael Warner   1:51:56  735 Zeitgeist
7Barry Padilla   1:54:06  779 0
8Stewart Irving   1:57:23  791 
9Matthew Valdez   2:00:32  797 0
10Steve Rothenberg   2:09:02  729 0
11Manu Konig   2:09:44  772 0
12Paul Lozito   2:10:40  724 0
13Eric Bowman   2:14:28  774 0
14John Harrington   2:24:42  796 0
15Jay Murphy   2:59:08  727 Kaiser San Francisco

Men - Cat 2 - Master - 50-59

 Place Points NameCity, StateTime USAC #BibTeam
1489.04Richard Gelsi-Medeot   Novato, CA1:40:31 225191  789 WTB/Cal Giant
2498.22Jim Lund   San Leandro, CA1:49:26 21830  763 VSRT
3John Grubbs   1:50:37  761 Kinetic Cycles
4Mike Yoham   1:51:59  769 0
5525.76Paul Falvey   Grass Valley, CA1:54:04 11212  756 xtreme Outfitters
6Peter Brisbo   1:55:08  775 0
7544.12Dan Nelson   San Francisco, CA1:58:07 191072  766 NTP Racing
8553.30Montie Milner   Reno, NV2:03:17 176313  764 Reno Wheelmen
9562.48George Grass   Tahoe City, CA2:06:31 79211  759 0
10Dale Greenhalgh   2:10:21  760 FOX RACING SHOX
11Tom Jakaby   2:27:53  762 Buycell.com/Jakaby Engineering
12590.02William Dunkum   Cool, CA2:29:20 157140  755 Team Mad Cat

Men - Cat 2 - Master - 60-99

 Place Points NameCity, StateTime USAC #BibTeam
1476.30Kurt Barton   Meadow Vista, CA2:14:29 356682  754 Victory Velo
2514.20Russ Fay   Orangevale, CA2:18:18 11347  757 Sho-Air / Rock N Road Cyclery
3552.10terry vachon   Reno, NV2:46:53 257474  768 0
4590.00Owen Mulholland   Greenbrae, CA2:48:04 25354  765 0

Men - Cat 1/2/3 - Junior - 10-14

 Place Points NameCity, StateTime USAC #BibTeam
1494.50A.J. Marino (1 - Cat2)   South Lake Tahoe, CA1:02:14 275529  821 Tomac/Wattabike
2Nelson Bedient   1:04:57  820 0
3542.26Noah Paul (1 - Cat3)   South Lake Tahoeo, CA1:06:46 352932  824 Jon Paul Gallery
4566.14Justin OCamb (2 - Cat3)   Orinda, CA1:10:07 319232  823 Miramonte Cycling Club
5590.02Blake Milner   Reno, NV1:15:07 291487  822 Reno Wheelmen

Men - Cat 1/2/3 - Junior - 17-18

 Place Points NameCity, StateTime USAC #BibTeam
1392.92Daniel Thompson   Tiburon, CA1:29:40 313140  693 Team 138 racing
2408.08Eliel Anttila   Mill Valley, CA1:32:39 297164  979 Whole Athlete/Specialized
3423.24Tyler Jones   Durango, CO1:36:23 350228  984 A-Team Norcal Bike Sport/Specialized
4438.40Bobby Zidek   Chico, CA1:36:25 304633  786 Whole Athlete-Specialized
5453.56Austin Gooder   Novato, CA1:36:30 315148  434 0
6468.72Adam OCamb   Orinda Ca1:38:58 297136  987 Miramonte Cycling Club
7483.88Kyle Luther   Folsom, CA1:40:17 319064  985 0
8499.04Jeroen Keukenkamp   El Dorado Hills, CA1:41:24 258269  787 0
9514.20Erik Johnson (1 - Cat2)   Incline Village, NV1:43:39 319034  983 Miramonte Cycling Club
10529.36Nathan Murcia   Roseville, CA1:43:48 286212  986 Woodcreek High School Cycling Team
11544.52Devin Eastman (2 - Cat2)   Larkspur, CA1:46:32 319116  785 138 Racing
12559.68Brad Hoffler (1 - Cat3)   Nevada City, CA2:21:07 335326  982 Nevada Union Mountain Bike Team
13David Monge   3:48:41  777 0
14Nelson Monge   4:18:27  776 0

Men - Cat 1 - Senior - 19-29

 Place Points NameCity, StateTime USAC #BibTeam
1264.26Anthony Smith   San Rafael, CA2:01:54 205657  533 Whole Athlete-Specialized
2280.16Max Houtzager   Ross, CA2:05:25 286995  664 Whole Athlete-Specialized
3296.06Jacob Albrecht   Soquel, CA2:12:18 303589  602 Santa Cruz Junior Cycling
4311.96Colby Pastore   Petaluma, CA2:16:50 256426  532 Nor Cal Bike Sport
5327.86Joseph Yoham   San Rafael, CA2:17:08 257687  621 0
6343.76Riley Howard   Petaluma, CA2:18:19 256746  611 Nor Cal Bike Sport
7359.66Davis Bentley   Banner Elk, NC2:19:11 219980  540 AC
8375.56Andrew Taylor   Martinez, CA2:37:00 238469  618 Contra Costa Composite
9391.46Justin Abbott   Pleasant Hill, CA2:26:20 156336  601 Taleo
10407.36Marshall Eames   Lafayette2:15:22 198844  667 Santa Cruz/Fox/WTB
11423.26Derek Yarra   San Francisco, CA2:23:37 306457  672 Buy-Cell.com/IBIS
12439.16Nathan Brown   Santarosa, CA2:16:32 306845  605 0
13455.06Alex Luce   Berkeley, CA2:44:01 184377  614 Porkchop Sandwhiches!
14470.96Anthony Santamaria   Davis, CA2:27:48 199152  686 0
15486.86Daniel Stuart   Davis, CA2:20:42 207649  688 0
DNFSteven Springhorn   Sacramentos, CAdnf 354058  542 Team Revolutions

Men - Cat 1 - Master - 30-34

 Place Points NameCity, StateTime USAC #BibTeam
1379.34Krishna Dole   San Mateo, CA2:08:31 277112  534 Sheila Moon
2400.36Brue Syvertsen   San Francisco, CA2:10:04 270534  678 Marin
3421.38BILLY DAMON   Auburn, CA2:10:48 259824  685 Bicycle Emporium
4442.40Brian Butler   Salinas, CA2:11:34 250239  606 SBRacing.org / Santa Cruz / HAMMER
5463.42Shiloh Kantz   Fairfax, CA2:13:44 180321  617 Summit Bicycles
6484.44Aaron Wilcher   San Francisco , CA2:18:04 38204  684 Buy-Cell.com/IBIS
7505.46Dustin Gillingham   Lakewood, CO2:18:23 262242  673 Miracle
8526.48Chris Erickson   Incline Village, NV2:19:48 317028  609 0
9547.50Jon Smith   Los Gatos, CA2:23:14 339880  616 Quadzilla Racing
10568.52Kirk Desmond   Novato, CA2:25:53 142104  699 WTB
11589.54Nicholaus Slone   San Fancisco, CA2:26:04 84083  615 Dolore Grotta
DNFNick Wierzba   Suttons Bay, MIdnf 205037  619 0

Men - Cat 1 - Master - 35-39

 Place Points NameCity, StateTime USAC #BibTeam
1406.92Gregory Anderson   Vacaville, CA2:14:04 90802  603 Morgan Stanley Smith Barney/Specialized
2428.17Scott Leland   Reno, NV2:15:40 179817  530 VeloReno
3449.42Robert Braun   Gardnerville, NV2:16:29 249753  604 Alta Alpina Cycling Club
4470.67Christopher Kelly   Oakland, CA2:17:34 303770  613 Team Roaring Mouse
5Tony Castagnetto   2:25:56  607 Team Diablo
6513.17Chad Wilson   Reno, NV2:30:30 176578  620 Reno Wheelmen
7534.42Ryan Icanberry   Reno, NV2:37:45 318518  612 Northstar-Giant
8555.67Brandon Correia   Alameda, CA2:40:45 188308  608 Godspeed Courier/Mojo Cafe
DNFHyland Fisher   dnf  610 Xtreme Outfitters

Men - Cat 1 - Master - 40-44

 Place Points NameCity, StateTime USAC #BibTeam
1390.74Dario Fredrick   San Anselmo, CA2:01:53 12329  665 Whole Athlete-Specialized
2Jordi Cortez   2:14:23  669 Cal Giant
3419.20Brock Dickie   Santa Cruz, CA2:14:56 42222  622 Buy-Cell.com/IBIS
4433.43Robert Luttrell   San Francisco, CA2:17:10 196333  632 Fusion Sport
5447.66Chris Schulze   Folsom, CA2:18:28 188949  639 Bicycles Plus/Sierra Nevada
6461.89Bill Purcell   Nevada City, CA2:19:51 151113  636 0
7476.12Leif Rohrbach   Concord, CA2:20:51 296786  637 Tema Diablo
8490.35Mario Gallardo   Incline Village, NV2:21:49 117971  625 Felt Bicycles/ Oakland Repuplic
9504.58Matt Jordan   Santa Cruz, CA2:29:17 245591  631 Trailhead Cyclery
10518.81Daniele Farnedi   Orinda, CA2:38:23 177571  624 Team Roaring Mouse
11533.04Cisco Moran   San Francisco, CA2:38:26 185121  634 Team Roaring Mouse
12547.27Robert Luttrell   San Francisco, CA2:41:05 196333  632 Fusion Sport
13561.50Tyson Godfrey   San Francisco, CA2:47:19 196149  626 0
14575.73Allen Hill   Reno, NV2:54:34 16168  677 Bicycle Bananas
15589.96Chris DuBurg   Los Gatos, CA3:01:50 232893  623 Honey Badger
DNFOliver Souza   Martinez, CAdnf 140907  695 0
DNFTom Taylor   dnf  640 team roaring mouse
DNFScott Zavack   Los Gatos, CAdnf 226979  642 Buy-cell.com/ibis

Men - Cat 1 - Master - 45-49

 Place Points NameCity, StateTime USAC #BibTeam
1402.83Kevin Merrigan   Castro Valley, CA2:31:14 24098  633 Castro Valley Cyclery/BMC Bikes
2428.76Dan Goldsmith   Grass Valley, CA2:33:11 258865  627 SHO-AIR/SERT
3454.69Den Satake   Mill Valley, CA2:22:51 56630  638 Tam Bikes
4480.62Marc Kirberg   Corte Madera, CA2:25:50 250525  689 Tam Bikes
5506.55Steve Wade   Monte Sereno, CA2:44:12 178452  641 +3 Network
6532.48Hans Kellner   Oakland, CA2:47:07 43368  676 SyCip / Schwalbe
DNFMark Mastoras   San Bruno, CAdnf 117797  680 0

Men - Cat 1 - Master - 50-99

 Place Points NameCity, StateTime USAC #BibTeam
1468.89Jerome Heiberger   Grass Valley, CA2:30:21 15679  629 SHO-AIR/SERT
2516.20Dane Grant   San Francisco, CA2:47:33 171862  628 Team Roaring Mouse
3563.51Talbott Houk   Monte Sereno, CA3:04:45 189883  630 Linear

Men - Pro

 Place Points NameCity, StateTime USAC #BibTeam
1289.97Gregg Stone   Truckee, CA2:02:25 34272  Mighty Mobile Bike Repair
2308.26Clinton Claassen   El Dorado Hills, CA2:02:28 278360  647 Team Mad Cat
3326.55William Curtis   San Rafael, CA2:04:43 233101  649 Whole Athlete-Specialized
4344.84Kevin Smallman   San Leandro, CA2:05:51 204144  670 Team WTB/Cannondale/Incycle
5363.13Cody Kaiser   El Dorado Hills, CA2:09:27 202564  690 Cal Giant
6381.42Mark Weir   Novato, CA2:09:38 40946  651 WTB cannondale fox racing shox
7399.71Ben Cruz   Novato, CA2:09:40 213397  648 WTB cannondale fox racing shox
8418.00Kenny Burt   Auburn, CA2:09:49 89186  696 WTB/Ibis
9436.29Tom Sharp   San Carlos, CA2:11:48 224912  650 ContentWorks
10454.58Anthony Sinyard   Morgan Hill, CA2:13:06 206326  536 SBI
11472.87Nicholas Newcomb   Nicasio, CA2:16:54 258299  691 Whole Athlete-Specialized
12491.16Benjamin Portilla   Oakland, CA2:29:46 208016  675 Honey Stinger
DNFBrian Astell   Gualala, CAdnf 163428  538 Lost Caoat Marin
DNFDaniel McNaughton   Martinez, CAdnf 110305  671 Constant Works

Women - Pro/Cat 1

 Place Points NameCity, StateTime USAC #BibTeam
1423.33Tara Walhart   San Francisco, CA2:43:04 133103  661 Team Campmor
2442.15Carrie Edwards   Sausalito, CA2:44:47 99021  674 Sheila Moon
3460.97Rebekah Rottenberg   Davis, CA2:47:20 288266  658 DBC
4479.79Kelly Chang   Oakland, CA2:54:57 405  683 SyCip / Schwalbe
5498.61Ann Fitzsimmons   Gilroy, CA2:56:42 203793  656 Fox
6517.43Julie Porter   Auburn, CA3:15:46 176587  657 Velo Bella
7536.25Michelle Monroe   Salinas, CA3:22:38 203968  694 Buy-Cell.com/IBIS
8555.07Sabrina David   Boulder, CO3:34:40 291263  655 0
DNFEllen Sherrill   South Lake Tahoe, CAdnf 299535  660 Bike Station Aptos
DNFAmber Broch   Reno, NVdnf 202496  698 Velo Reno

Women - Cat 1/2/3 - Expert

 Place Points NameCity, StateTime USAC #BibTeam
1Alexis Colin   2:55:39  531 WTB

Women - Cat 3 - Senior

 Place Points NameCity, StateTime USAC #BibTeam
1Heather White   1:21:07  817 0
2Christina Lee   1:25:12  816 0
3Karla Barragan   2:33:44  815 0

Women - Cat 3 - Senior - 40-99

 Place Points NameCity, StateTime USAC #BibTeam
1540.00Susann Nordrum   Corte Madera, CA1:06:15 354830  830 0
2556.67Trudy Bjornsen   Dixon, CA1:09:29 180561  819 davis bike club
3Katherine Talbot   1:09:59  826 0
4Sara Bernstein   1:24:50  818 0

Women - Cat 2 - Senior

 Place Points NameCity, StateTime USAC #BibTeam
1Shiloh Ballard   2:08:05  960 Quadzilla
2497.64Carla Salzbrun   Reno, NV2:12:17 329848  966 0
3516.11Heather Rose   Santa Barbara, CA2:13:32 236955  965 Polli Veloce
4534.58Brianne Spiersch   Salinas, CA2:14:42 295715  968 SBRacing.org
5Cari Levine   2:21:57  963 Team Levine
6Trista Schulze   2:27:03  967 Folsom Bike
7Katie Pfeiffer   2:41:18  964 Cal Cycling
DNFLeslie Creed   Dixon, CAdnf 158064  961 Grass Roots Racing/Velo Wrench
DNFNatalia Gardiol   San Francisco, CAdnf 235753  799 Chica Sexy

Women - Cat 2 - Master - 40-99

 Place Points NameCity, StateTime USAC #BibTeam
1Valerie Alexander   South Lake Tahoe, CA2:09:08 247222  969 0
2Cheryl Stockton   2:23:30  970 0

Women - Cat 1/2/3 - Junior - 10-18

 Place Points NameCity, StateTime USAC #BibTeam
1327.76Kate Courtney   Kentfield, CA0:45:50 307752  432 Whole Athlete
2369.55Mackinzie Stanley   Fairfax0:57:23 298013  828 Whole Althelete
3411.34Sofia Hamilton   San Anselmo, CA0:57:41 298034  431 Whole Athlete - Specialized
4453.13Victoria Yoham   San Rafael, CA0:58:09 297967  435 Whole Athlete-Specialized
5Tatiana Sisneros   2:14:20  433 monticelllo cycling club

Report missing or incorrect license numbers

Volkswagen
Sierra NevadaSpyUSACDFShimanoBonk Breaker
UCI USA Cycling is the official governing body for all disciplines of competitive cycling in the United States. The 501c3, membership-based organization aims both to achieve sustained success in international cycling competition and to grow competitive cycling in America while delivering an exceptional customer experience.
View Children's Online Privacy Protection Policy
US Olympic Committee